sensor_id;sensor_type;location;lat;lon;timestamp;temperature;humidity
56016;DHT22;41894;51.016;4.672;2023-02-18T00:02:09;12.60;89.20
56016;DHT22;41894;51.016;4.672;2023-02-18T00:04:34;12.40;90.10
56016;DHT22;41894;51.016;4.672;2023-02-18T00:07:00;12.60;90.00
56016;DHT22;41894;51.016;4.672;2023-02-18T00:09:26;12.70;89.10
56016;DHT22;41894;51.016;4.672;2023-02-18T00:11:52;12.50;89.60
56016;DHT22;41894;51.016;4.672;2023-02-18T00:14:17;12.60;89.50
56016;DHT22;41894;51.016;4.672;2023-02-18T00:16:44;12.50;89.90
56016;DHT22;41894;51.016;4.672;2023-02-18T00:19:13;12.50;90.10
56016;DHT22;41894;51.016;4.672;2023-02-18T00:21:39;12.40;90.20
56016;DHT22;41894;51.016;4.672;2023-02-18T00:24:05;12.30;90.30
56016;DHT22;41894;51.016;4.672;2023-02-18T00:26:32;12.30;90.70
56016;DHT22;41894;51.016;4.672;2023-02-18T00:28:57;12.30;90.50
56016;DHT22;41894;51.016;4.672;2023-02-18T00:31:26;12.30;90.50
56016;DHT22;41894;51.016;4.672;2023-02-18T00:33:52;12.30;90.60
56016;DHT22;41894;51.016;4.672;2023-02-18T00:36:20;12.30;90.80
56016;DHT22;41894;51.016;4.672;2023-02-18T00:38:48;12.20;90.70
56016;DHT22;41894;51.016;4.672;2023-02-18T00:41:14;12.30;90.50
56016;DHT22;41894;51.016;4.672;2023-02-18T00:43:40;12.50;90.30
56016;DHT22;41894;51.016;4.672;2023-02-18T00:46:06;12.30;90.30
56016;DHT22;41894;51.016;4.672;2023-02-18T00:48:32;12.40;90.10
56016;DHT22;41894;51.016;4.672;2023-02-18T00:50:59;12.30;90.40
56016;DHT22;41894;51.016;4.672;2023-02-18T00:53:26;12.40;90.40
56016;DHT22;41894;51.016;4.672;2023-02-18T00:55:52;12.40;90.30
56016;DHT22;41894;51.016;4.672;2023-02-18T00:58:18;12.40;90.00
56016;DHT22;41894;51.016;4.672;2023-02-18T01:00:44;12.10;90.80
56016;DHT22;41894;51.016;4.672;2023-02-18T01:03:10;11.90;91.40
56016;DHT22;41894;51.016;4.672;2023-02-18T01:05:37;11.90;91.40
56016;DHT22;41894;51.016;4.672;2023-02-18T01:08:04;12.00;91.20
56016;DHT22;41894;51.016;4.672;2023-02-18T01:10:30;12.00;91.20
56016;DHT22;41894;51.016;4.672;2023-02-18T01:12:55;12.10;91.00
56016;DHT22;41894;51.016;4.672;2023-02-18T01:15:21;12.30;90.50
56016;DHT22;41894;51.016;4.672;2023-02-18T01:17:47;12.20;90.60
56016;DHT22;41894;51.016;4.672;2023-02-18T01:20:13;12.20;90.70
56016;DHT22;41894;51.016;4.672;2023-02-18T01:22:40;12.10;91.20
56016;DHT22;41894;51.016;4.672;2023-02-18T01:25:06;12.10;91.00
56016;DHT22;41894;51.016;4.672;2023-02-18T01:27:32;12.30;90.70
56016;DHT22;41894;51.016;4.672;2023-02-18T01:29:58;12.20;90.60
56016;DHT22;41894;51.016;4.672;2023-02-18T01:32:24;12.30;90.50
56016;DHT22;41894;51.016;4.672;2023-02-18T01:34:49;12.30;90.40
56016;DHT22;41894;51.016;4.672;2023-02-18T01:37:15;12.10;90.80
56016;DHT22;41894;51.016;4.672;2023-02-18T01:39:41;12.30;90.50
56016;DHT22;41894;51.016;4.672;2023-02-18T01:42:13;12.30;90.30
56016;DHT22;41894;51.016;4.672;2023-02-18T01:44:42;12.20;90.60
56016;DHT22;41894;51.016;4.672;2023-02-18T01:47:08;12.30;90.50
56016;DHT22;41894;51.016;4.672;2023-02-18T01:49:35;12.30;90.50
56016;DHT22;41894;51.016;4.672;2023-02-18T01:52:13;12.30;90.60
56016;DHT22;41894;51.016;4.672;2023-02-18T01:54:43;12.30;90.60
56016;DHT22;41894;51.016;4.672;2023-02-18T01:57:21;12.10;90.90
56016;DHT22;41894;51.016;4.672;2023-02-18T01:59:48;12.00;91.10
56016;DHT22;41894;51.016;4.672;2023-02-18T02:02:18;12.00;91.50
56016;DHT22;41894;51.016;4.672;2023-02-18T02:04:45;12.00;91.60
56016;DHT22;41894;51.016;4.672;2023-02-18T02:07:11;12.00;91.90
56016;DHT22;41894;51.016;4.672;2023-02-18T02:09:38;11.90;91.70
56016;DHT22;41894;51.016;4.672;2023-02-18T02:22:48;12.00;92.00
56016;DHT22;41894;51.016;4.672;2023-02-18T02:36:51;11.70;92.80
56016;DHT22;41894;51.016;4.672;2023-02-18T02:39:28;11.70;92.70
56016;DHT22;41894;51.016;4.672;2023-02-18T02:44:25;11.60;93.00
56016;DHT22;41894;51.016;4.672;2023-02-18T02:47:01;11.70;92.80
56016;DHT22;41894;51.016;4.672;2023-02-18T02:52:45;11.60;93.00
56016;DHT22;41894;51.016;4.672;2023-02-18T02:55:12;11.70;92.70
56016;DHT22;41894;51.016;4.672;2023-02-18T02:57:42;11.60;93.10
56016;DHT22;41894;51.016;4.672;2023-02-18T03:00:09;11.60;93.00
56016;DHT22;41894;51.016;4.672;2023-02-18T03:05:38;11.70;92.90
56016;DHT22;41894;51.016;4.672;2023-02-18T03:11:03;11.80;92.50
56016;DHT22;41894;51.016;4.672;2023-02-18T03:18:45;11.80;92.30
56016;DHT22;41894;51.016;4.672;2023-02-18T03:21:30;11.80;92.20
56016;DHT22;41894;51.016;4.672;2023-02-18T03:24:13;11.70;92.50
56016;DHT22;41894;51.016;4.672;2023-02-18T03:26:45;11.70;92.70
56016;DHT22;41894;51.016;4.672;2023-02-18T03:29:14;11.60;92.70
56016;DHT22;41894;51.016;4.672;2023-02-18T03:31:43;11.50;93.00
56016;DHT22;41894;51.016;4.672;2023-02-18T03:34:15;11.60;93.00
56016;DHT22;41894;51.016;4.672;2023-02-18T03:36:42;11.50;93.40
56016;DHT22;41894;51.016;4.672;2023-02-18T03:39:15;11.40;93.50
56016;DHT22;41894;51.016;4.672;2023-02-18T03:41:42;11.30;93.80
56016;DHT22;41894;51.016;4.672;2023-02-18T03:44:09;11.40;93.60
56016;DHT22;41894;51.016;4.672;2023-02-18T03:46:37;11.60;93.30
56016;DHT22;41894;51.016;4.672;2023-02-18T03:49:04;11.70;93.00
56016;DHT22;41894;51.016;4.672;2023-02-18T03:51:30;11.60;93.00
56016;DHT22;41894;51.016;4.672;2023-02-18T03:53:55;11.70;92.90
56016;DHT22;41894;51.016;4.672;2023-02-18T03:56:22;11.50;93.00
56016;DHT22;41894;51.016;4.672;2023-02-18T03:58:48;11.50;93.20
56016;DHT22;41894;51.016;4.672;2023-02-18T04:01:14;11.50;93.20
56016;DHT22;41894;51.016;4.672;2023-02-18T04:03:40;11.50;93.40
56016;DHT22;41894;51.016;4.672;2023-02-18T04:06:06;11.40;93.40
56016;DHT22;41894;51.016;4.672;2023-02-18T04:08:31;11.50;93.40
56016;DHT22;41894;51.016;4.672;2023-02-18T04:10:57;11.40;93.60
56016;DHT22;41894;51.016;4.672;2023-02-18T04:13:23;11.40;93.60
56016;DHT22;41894;51.016;4.672;2023-02-18T04:15:49;11.40;93.60
56016;DHT22;41894;51.016;4.672;2023-02-18T04:18:15;11.40;93.50
56016;DHT22;41894;51.016;4.672;2023-02-18T04:20:41;11.40;93.40
56016;DHT22;41894;51.016;4.672;2023-02-18T04:23:07;11.30;93.70
56016;DHT22;41894;51.016;4.672;2023-02-18T04:25:33;11.30;93.70
56016;DHT22;41894;51.016;4.672;2023-02-18T04:27:59;11.40;93.70
56016;DHT22;41894;51.016;4.672;2023-02-18T04:30:25;11.40;93.40
56016;DHT22;41894;51.016;4.672;2023-02-18T04:32:51;11.40;93.30
56016;DHT22;41894;51.016;4.672;2023-02-18T04:35:17;11.50;93.20
56016;DHT22;41894;51.016;4.672;2023-02-18T04:37:43;11.40;93.50
56016;DHT22;41894;51.016;4.672;2023-02-18T04:40:09;11.50;93.10
56016;DHT22;41894;51.016;4.672;2023-02-18T04:42:35;11.60;92.90
56016;DHT22;41894;51.016;4.672;2023-02-18T04:45:01;11.50;93.00
56016;DHT22;41894;51.016;4.672;2023-02-18T04:47:27;11.50;93.20
56016;DHT22;41894;51.016;4.672;2023-02-18T04:49:52;11.50;92.90
56016;DHT22;41894;51.016;4.672;2023-02-18T04:52:18;11.50;92.80
56016;DHT22;41894;51.016;4.672;2023-02-18T04:54:44;11.40;93.10
56016;DHT22;41894;51.016;4.672;2023-02-18T04:57:11;11.50;93.00
56016;DHT22;41894;51.016;4.672;2023-02-18T04:59:37;11.50;92.90
56016;DHT22;41894;51.016;4.672;2023-02-18T05:02:03;11.60;92.80
56016;DHT22;41894;51.016;4.672;2023-02-18T05:04:28;11.60;92.60
56016;DHT22;41894;51.016;4.672;2023-02-18T05:06:54;11.60;92.80
56016;DHT22;41894;51.016;4.672;2023-02-18T05:09:20;11.50;92.80
56016;DHT22;41894;51.016;4.672;2023-02-18T05:11:46;11.40;93.20
56016;DHT22;41894;51.016;4.672;2023-02-18T05:14:12;11.60;92.70
56016;DHT22;41894;51.016;4.672;2023-02-18T05:16:38;11.60;92.60
56016;DHT22;41894;51.016;4.672;2023-02-18T05:19:04;11.50;92.80
56016;DHT22;41894;51.016;4.672;2023-02-18T05:21:30;11.40;93.00
56016;DHT22;41894;51.016;4.672;2023-02-18T05:23:55;11.60;92.70
56016;DHT22;41894;51.016;4.672;2023-02-18T05:26:21;11.70;92.70
56016;DHT22;41894;51.016;4.672;2023-02-18T05:28:47;11.60;92.70
56016;DHT22;41894;51.016;4.672;2023-02-18T05:31:13;11.70;92.60
56016;DHT22;41894;51.016;4.672;2023-02-18T05:33:38;11.50;93.10
56016;DHT22;41894;51.016;4.672;2023-02-18T05:36:04;11.30;93.20
56016;DHT22;41894;51.016;4.672;2023-02-18T05:38:30;11.40;93.40
56016;DHT22;41894;51.016;4.672;2023-02-18T05:40:55;11.30;93.20
56016;DHT22;41894;51.016;4.672;2023-02-18T05:43:21;11.30;93.10
56016;DHT22;41894;51.016;4.672;2023-02-18T05:45:47;11.40;92.50
56016;DHT22;41894;51.016;4.672;2023-02-18T05:48:12;11.50;92.20
56016;DHT22;41894;51.016;4.672;2023-02-18T05:50:38;11.40;92.30
56016;DHT22;41894;51.016;4.672;2023-02-18T05:53:04;11.30;92.40
56016;DHT22;41894;51.016;4.672;2023-02-18T05:55:30;11.40;92.00
56016;DHT22;41894;51.016;4.672;2023-02-18T05:57:56;11.30;92.10
56016;DHT22;41894;51.016;4.672;2023-02-18T06:00:22;11.30;92.30
56016;DHT22;41894;51.016;4.672;2023-02-18T06:02:48;11.10;92.20
56016;DHT22;41894;51.016;4.672;2023-02-18T06:05:14;11.20;91.40
56016;DHT22;41894;51.016;4.672;2023-02-18T06:07:39;11.00;91.00
56016;DHT22;41894;51.016;4.672;2023-02-18T06:10:05;11.00;91.60
56016;DHT22;41894;51.016;4.672;2023-02-18T06:12:31;11.10;91.10
56016;DHT22;41894;51.016;4.672;2023-02-18T06:14:57;11.00;91.10
56016;DHT22;41894;51.016;4.672;2023-02-18T06:17:23;11.00;90.80
56016;DHT22;41894;51.016;4.672;2023-02-18T06:19:48;11.20;90.40
56016;DHT22;41894;51.016;4.672;2023-02-18T06:22:14;11.20;90.20
56016;DHT22;41894;51.016;4.672;2023-02-18T06:24:40;11.20;89.70
56016;DHT22;41894;51.016;4.672;2023-02-18T06:27:05;11.10;89.00
56016;DHT22;41894;51.016;4.672;2023-02-18T06:29:32;11.10;87.50
56016;DHT22;41894;51.016;4.672;2023-02-18T06:31:58;10.90;88.30
56016;DHT22;41894;51.016;4.672;2023-02-18T06:34:25;11.00;86.90
56016;DHT22;41894;51.016;4.672;2023-02-18T06:36:51;11.00;86.80
56016;DHT22;41894;51.016;4.672;2023-02-18T06:39:17;11.00;86.10
56016;DHT22;41894;51.016;4.672;2023-02-18T06:41:43;11.00;85.80
56016;DHT22;41894;51.016;4.672;2023-02-18T06:44:08;11.00;86.60
56016;DHT22;41894;51.016;4.672;2023-02-18T06:46:35;11.00;86.10
56016;DHT22;41894;51.016;4.672;2023-02-18T06:49:02;11.10;86.10
56016;DHT22;41894;51.016;4.672;2023-02-18T06:51:28;11.10;84.70
56016;DHT22;41894;51.016;4.672;2023-02-18T06:53:53;11.10;84.90
56016;DHT22;41894;51.016;4.672;2023-02-18T06:56:19;11.00;86.50
56016;DHT22;41894;51.016;4.672;2023-02-18T06:58:44;11.00;85.70
56016;DHT22;41894;51.016;4.672;2023-02-18T07:01:10;11.00;84.40
56016;DHT22;41894;51.016;4.672;2023-02-18T07:03:36;11.20;83.10
56016;DHT22;41894;51.016;4.672;2023-02-18T07:06:01;11.30;82.20
56016;DHT22;41894;51.016;4.672;2023-02-18T07:08:27;11.30;82.30
56016;DHT22;41894;51.016;4.672;2023-02-18T07:10:55;11.30;83.00
56016;DHT22;41894;51.016;4.672;2023-02-18T07:13:21;11.30;82.30
56016;DHT22;41894;51.016;4.672;2023-02-18T07:15:46;11.20;82.90
56016;DHT22;41894;51.016;4.672;2023-02-18T07:18:12;11.20;83.40
56016;DHT22;41894;51.016;4.672;2023-02-18T07:20:38;11.20;82.80
56016;DHT22;41894;51.016;4.672;2023-02-18T07:23:03;11.20;82.70
56016;DHT22;41894;51.016;4.672;2023-02-18T07:25:29;11.30;82.50
56016;DHT22;41894;51.016;4.672;2023-02-18T07:27:55;11.20;83.40
56016;DHT22;41894;51.016;4.672;2023-02-18T07:30:20;11.30;83.60
56016;DHT22;41894;51.016;4.672;2023-02-18T07:32:46;11.30;83.00
56016;DHT22;41894;51.016;4.672;2023-02-18T07:35:16;11.20;83.00
56016;DHT22;41894;51.016;4.672;2023-02-18T07:37:46;11.40;82.50
56016;DHT22;41894;51.016;4.672;2023-02-18T07:40:14;11.40;82.50
56016;DHT22;41894;51.016;4.672;2023-02-18T07:42:41;11.60;81.20
56016;DHT22;41894;51.016;4.672;2023-02-18T07:45:07;11.50;80.40
56016;DHT22;41894;51.016;4.672;2023-02-18T07:47:33;11.60;80.20
56016;DHT22;41894;51.016;4.672;2023-02-18T07:49:58;11.60;80.20
56016;DHT22;41894;51.016;4.672;2023-02-18T07:52:24;11.50;81.00
56016;DHT22;41894;51.016;4.672;2023-02-18T07:54:50;11.50;81.00
56016;DHT22;41894;51.016;4.672;2023-02-18T07:57:15;11.40;81.20
56016;DHT22;41894;51.016;4.672;2023-02-18T07:59:41;11.70;80.70
56016;DHT22;41894;51.016;4.672;2023-02-18T08:02:16;11.80;80.20
56016;DHT22;41894;51.016;4.672;2023-02-18T08:04:43;11.60;79.90
56016;DHT22;41894;51.016;4.672;2023-02-18T08:07:12;11.80;79.70
56016;DHT22;41894;51.016;4.672;2023-02-18T08:09:39;11.90;78.30
56016;DHT22;41894;51.016;4.672;2023-02-18T08:12:05;11.90;78.40
56016;DHT22;41894;51.016;4.672;2023-02-18T08:14:30;12.00;78.30
56016;DHT22;41894;51.016;4.672;2023-02-18T08:16:56;12.00;78.60
56016;DHT22;41894;51.016;4.672;2023-02-18T08:19:21;11.80;79.20
56016;DHT22;41894;51.016;4.672;2023-02-18T08:21:47;11.90;79.30
56016;DHT22;41894;51.016;4.672;2023-02-18T08:24:13;12.10;78.70
56016;DHT22;41894;51.016;4.672;2023-02-18T08:26:38;12.10;78.00
56016;DHT22;41894;51.016;4.672;2023-02-18T08:29:04;11.90;80.10
56016;DHT22;41894;51.016;4.672;2023-02-18T08:31:30;12.00;79.10
56016;DHT22;41894;51.016;4.672;2023-02-18T08:33:57;12.10;78.50
56016;DHT22;41894;51.016;4.672;2023-02-18T08:36:23;12.20;77.90
56016;DHT22;41894;51.016;4.672;2023-02-18T08:38:49;12.30;76.70
56016;DHT22;41894;51.016;4.672;2023-02-18T08:41:15;12.40;77.10
56016;DHT22;41894;51.016;4.672;2023-02-18T08:43:43;12.40;76.90
56016;DHT22;41894;51.016;4.672;2023-02-18T08:46:09;12.50;76.60
56016;DHT22;41894;51.016;4.672;2023-02-18T08:48:34;12.40;75.70
56016;DHT22;41894;51.016;4.672;2023-02-18T08:51:10;12.30;76.00
56016;DHT22;41894;51.016;4.672;2023-02-18T08:53:36;12.30;77.50
56016;DHT22;41894;51.016;4.672;2023-02-18T08:56:05;12.40;75.40
56016;DHT22;41894;51.016;4.672;2023-02-18T08:58:31;12.50;75.80
56016;DHT22;41894;51.016;4.672;2023-02-18T09:01:00;12.50;75.70
56016;DHT22;41894;51.016;4.672;2023-02-18T09:03:26;12.60;75.30
56016;DHT22;41894;51.016;4.672;2023-02-18T09:05:52;12.50;75.80
56016;DHT22;41894;51.016;4.672;2023-02-18T09:08:17;12.50;75.30
56016;DHT22;41894;51.016;4.672;2023-02-18T09:10:43;12.70;75.90
56016;DHT22;41894;51.016;4.672;2023-02-18T09:13:09;12.80;74.80
56016;DHT22;41894;51.016;4.672;2023-02-18T09:15:35;12.80;73.80
56016;DHT22;41894;51.016;4.672;2023-02-18T09:18:00;12.80;75.10
56016;DHT22;41894;51.016;4.672;2023-02-18T09:20:26;13.00;74.60
56016;DHT22;41894;51.016;4.672;2023-02-18T09:22:52;12.90;73.70
56016;DHT22;41894;51.016;4.672;2023-02-18T09:25:18;13.10;73.40
56016;DHT22;41894;51.016;4.672;2023-02-18T09:27:44;13.00;73.30
56016;DHT22;41894;51.016;4.672;2023-02-18T09:30:09;13.00;73.60
56016;DHT22;41894;51.016;4.672;2023-02-18T09:32:35;12.90;74.80
56016;DHT22;41894;51.016;4.672;2023-02-18T09:35:03;12.60;76.90
56016;DHT22;41894;51.016;4.672;2023-02-18T09:37:31;12.50;77.10
56016;DHT22;41894;51.016;4.672;2023-02-18T09:39:56;12.50;76.60
56016;DHT22;41894;51.016;4.672;2023-02-18T09:42:28;12.80;75.90
56016;DHT22;41894;51.016;4.672;2023-02-18T09:44:59;12.90;75.60
56016;DHT22;41894;51.016;4.672;2023-02-18T09:47:49;13.10;74.60
56016;DHT22;41894;51.016;4.672;2023-02-18T09:50:21;13.00;73.80
56016;DHT22;41894;51.016;4.672;2023-02-18T09:52:48;12.80;75.70
56016;DHT22;41894;51.016;4.672;2023-02-18T09:57:44;12.70;76.50
56016;DHT22;41894;51.016;4.672;2023-02-18T10:00:23;12.70;76.60
56016;DHT22;41894;51.016;4.672;2023-02-18T10:05:24;12.40;77.70
56016;DHT22;41894;51.016;4.672;2023-02-18T10:07:53;12.50;77.70
56016;DHT22;41894;51.016;4.672;2023-02-18T10:12:54;12.60;78.00
56016;DHT22;41894;51.016;4.672;2023-02-18T10:15:22;12.70;77.40
56016;DHT22;41894;51.016;4.672;2023-02-18T10:17:52;12.60;77.80
56016;DHT22;41894;51.016;4.672;2023-02-18T10:20:22;12.60;78.10
56016;DHT22;41894;51.016;4.672;2023-02-18T10:22:49;12.70;79.00
56016;DHT22;41894;51.016;4.672;2023-02-18T10:25:20;12.90;76.70
56016;DHT22;41894;51.016;4.672;2023-02-18T10:27:47;13.00;76.70
56016;DHT22;41894;51.016;4.672;2023-02-18T10:32:43;13.00;78.00
56016;DHT22;41894;51.016;4.672;2023-02-18T10:35:32;13.10;76.50
56016;DHT22;41894;51.016;4.672;2023-02-18T10:51:29;13.00;77.50
56016;DHT22;41894;51.016;4.672;2023-02-18T10:53:56;12.90;78.30
56016;DHT22;41894;51.016;4.672;2023-02-18T11:01:36;13.00;79.30
56016;DHT22;41894;51.016;4.672;2023-02-18T11:04:17;13.10;78.10
56016;DHT22;41894;51.016;4.672;2023-02-18T11:06:50;13.00;78.20
56016;DHT22;41894;51.016;4.672;2023-02-18T11:09:54;12.80;79.40
56016;DHT22;41894;51.016;4.672;2023-02-18T11:12:47;12.80;79.50
56016;DHT22;41894;51.016;4.672;2023-02-18T11:17:43;12.90;78.80
56016;DHT22;41894;51.016;4.672;2023-02-18T11:25:34;12.80;80.40
56016;DHT22;41894;51.016;4.672;2023-02-18T11:28:03;12.90;80.50
56016;DHT22;41894;51.016;4.672;2023-02-18T11:30:35;13.10;78.40
56016;DHT22;41894;51.016;4.672;2023-02-18T11:33:18;13.10;78.80
56016;DHT22;41894;51.016;4.672;2023-02-18T11:35:56;13.00;79.20
56016;DHT22;41894;51.016;4.672;2023-02-18T11:38:26;13.20;77.80
56016;DHT22;41894;51.016;4.672;2023-02-18T11:41:02;13.20;78.10
56016;DHT22;41894;51.016;4.672;2023-02-18T11:43:33;13.10;79.10
56016;DHT22;41894;51.016;4.672;2023-02-18T11:46:09;13.00;78.50
56016;DHT22;41894;51.016;4.672;2023-02-18T11:48:36;13.20;78.70
56016;DHT22;41894;51.016;4.672;2023-02-18T11:51:02;13.30;77.80
56016;DHT22;41894;51.016;4.672;2023-02-18T11:53:37;13.20;78.00
56016;DHT22;41894;51.016;4.672;2023-02-18T11:56:14;13.10;78.90
56016;DHT22;41894;51.016;4.672;2023-02-18T11:58:46;12.90;79.40
56016;DHT22;41894;51.016;4.672;2023-02-18T12:01:19;13.20;77.80
56016;DHT22;41894;51.016;4.672;2023-02-18T12:04:33;13.20;77.90
56016;DHT22;41894;51.016;4.672;2023-02-18T12:07:19;13.10;78.50
56016;DHT22;41894;51.016;4.672;2023-02-18T12:09:51;13.20;78.90
56016;DHT22;41894;51.016;4.672;2023-02-18T12:12:37;13.00;79.00
56016;DHT22;41894;51.016;4.672;2023-02-18T12:15:11;12.90;79.80
56016;DHT22;41894;51.016;4.672;2023-02-18T12:23:33;13.20;79.10
56016;DHT22;41894;51.016;4.672;2023-02-18T12:42:41;13.30;77.50
56016;DHT22;41894;51.016;4.672;2023-02-18T12:57:06;13.20;78.70
56016;DHT22;41894;51.016;4.672;2023-02-18T13:00:32;13.40;78.60
56016;DHT22;41894;51.016;4.672;2023-02-18T13:11:18;13.30;80.50
56016;DHT22;41894;51.016;4.672;2023-02-18T13:16:22;13.20;81.40
56016;DHT22;41894;51.016;4.672;2023-02-18T13:21:26;13.20;83.60
56016;DHT22;41894;51.016;4.672;2023-02-18T13:24:01;13.10;83.20
56016;DHT22;41894;51.016;4.672;2023-02-18T13:26:29;13.10;83.00
56016;DHT22;41894;51.016;4.672;2023-02-18T13:29:25;13.20;82.40
56016;DHT22;41894;51.016;4.672;2023-02-18T13:39:48;13.10;83.20
56016;DHT22;41894;51.016;4.672;2023-02-18T13:47:45;12.80;85.60
56016;DHT22;41894;51.016;4.672;2023-02-18T13:58:26;13.00;85.00
56016;DHT22;41894;51.016;4.672;2023-02-18T14:03:35;12.90;84.80
56016;DHT22;41894;51.016;4.672;2023-02-18T14:06:16;12.60;86.70
56016;DHT22;41894;51.016;4.672;2023-02-18T14:08:43;12.80;85.40
56016;DHT22;41894;51.016;4.672;2023-02-18T14:13:54;12.90;84.60
56016;DHT22;41894;51.016;4.672;2023-02-18T14:16:20;12.80;85.20
56016;DHT22;41894;51.016;4.672;2023-02-18T14:26:22;13.10;84.20
56016;DHT22;41894;51.016;4.672;2023-02-18T14:29:25;13.30;83.20
56016;DHT22;41894;51.016;4.672;2023-02-18T14:31:59;13.40;82.40
56016;DHT22;41894;51.016;4.672;2023-02-18T14:35:05;13.40;82.20
56016;DHT22;41894;51.016;4.672;2023-02-18T14:43:37;13.20;83.10
56016;DHT22;41894;51.016;4.672;2023-02-18T14:46:50;13.20;83.30
56016;DHT22;41894;51.016;4.672;2023-02-18T14:52:03;13.20;83.50
56016;DHT22;41894;51.016;4.672;2023-02-18T14:54:30;13.20;83.50
56016;DHT22;41894;51.016;4.672;2023-02-18T14:57:00;13.20;83.10
56016;DHT22;41894;51.016;4.672;2023-02-18T14:59:28;13.20;83.20
56016;DHT22;41894;51.016;4.672;2023-02-18T15:01:56;12.80;85.10
56016;DHT22;41894;51.016;4.672;2023-02-18T15:04:24;12.80;85.70
56016;DHT22;41894;51.016;4.672;2023-02-18T15:07:04;12.90;84.80
56016;DHT22;41894;51.016;4.672;2023-02-18T15:09:33;13.10;83.70
56016;DHT22;41894;51.016;4.672;2023-02-18T15:12:04;12.80;85.10
56016;DHT22;41894;51.016;4.672;2023-02-18T15:14:33;12.70;85.60
56016;DHT22;41894;51.016;4.672;2023-02-18T15:17:00;12.60;87.00
56016;DHT22;41894;51.016;4.672;2023-02-18T15:19:28;12.70;86.90
56016;DHT22;41894;51.016;4.672;2023-02-18T15:21:56;12.60;87.60
56016;DHT22;41894;51.016;4.672;2023-02-18T15:24:37;12.40;88.70
56016;DHT22;41894;51.016;4.672;2023-02-18T15:27:13;12.50;87.80
56016;DHT22;41894;51.016;4.672;2023-02-18T15:29:41;12.70;87.00
56016;DHT22;41894;51.016;4.672;2023-02-18T15:32:27;12.80;86.60
56016;DHT22;41894;51.016;4.672;2023-02-18T15:34:59;12.90;84.80
56016;DHT22;41894;51.016;4.672;2023-02-18T15:37:27;12.90;84.90
56016;DHT22;41894;51.016;4.672;2023-02-18T15:39:52;13.00;84.70
56016;DHT22;41894;51.016;4.672;2023-02-18T15:42:29;12.60;86.70
56016;DHT22;41894;51.016;4.672;2023-02-18T15:45:09;12.60;87.00
56016;DHT22;41894;51.016;4.672;2023-02-18T15:47:45;12.70;86.30
56016;DHT22;41894;51.016;4.672;2023-02-18T15:50:24;12.60;86.10
56016;DHT22;41894;51.016;4.672;2023-02-18T15:52:52;12.70;85.30
56016;DHT22;41894;51.016;4.672;2023-02-18T15:55:25;12.80;84.80
56016;DHT22;41894;51.016;4.672;2023-02-18T15:57:53;12.80;84.80
56016;DHT22;41894;51.016;4.672;2023-02-18T16:00:25;12.60;86.10
56016;DHT22;41894;51.016;4.672;2023-02-18T16:03:02;12.80;85.50
56016;DHT22;41894;51.016;4.672;2023-02-18T16:05:29;12.80;84.90
56016;DHT22;41894;51.016;4.672;2023-02-18T16:08:05;12.80;84.30
56016;DHT22;41894;51.016;4.672;2023-02-18T16:13:01;12.60;85.40
56016;DHT22;41894;51.016;4.672;2023-02-18T16:15:30;12.70;85.00
56016;DHT22;41894;51.016;4.672;2023-02-18T16:17:57;12.70;85.20
56016;DHT22;41894;51.016;4.672;2023-02-18T16:20:35;12.50;85.70
56016;DHT22;41894;51.016;4.672;2023-02-18T16:23:09;12.50;86.10
56016;DHT22;41894;51.016;4.672;2023-02-18T16:25:42;12.70;84.70
56016;DHT22;41894;51.016;4.672;2023-02-18T16:30:37;12.90;83.00
56016;DHT22;41894;51.016;4.672;2023-02-18T16:33:06;12.50;85.70
56016;DHT22;41894;51.016;4.672;2023-02-18T16:35:32;12.50;85.40
56016;DHT22;41894;51.016;4.672;2023-02-18T16:37:57;12.50;86.10
56016;DHT22;41894;51.016;4.672;2023-02-18T16:42:53;12.60;85.10
56016;DHT22;41894;51.016;4.672;2023-02-18T16:45:19;12.60;84.70
56016;DHT22;41894;51.016;4.672;2023-02-18T16:47:47;12.40;86.00
56016;DHT22;41894;51.016;4.672;2023-02-18T16:50:19;12.60;85.00
56016;DHT22;41894;51.016;4.672;2023-02-18T16:52:46;12.60;85.00
56016;DHT22;41894;51.016;4.672;2023-02-18T16:55:21;12.60;85.20
56016;DHT22;41894;51.016;4.672;2023-02-18T16:57:47;12.70;84.80
56016;DHT22;41894;51.016;4.672;2023-02-18T17:00:15;12.60;84.50
56016;DHT22;41894;51.016;4.672;2023-02-18T17:02:43;12.60;84.80
56016;DHT22;41894;51.016;4.672;2023-02-18T17:05:16;12.60;84.80
56016;DHT22;41894;51.016;4.672;2023-02-18T17:07:42;12.80;83.80
56016;DHT22;41894;51.016;4.672;2023-02-18T17:10:08;12.80;83.30
56016;DHT22;41894;51.016;4.672;2023-02-18T17:12:34;12.80;83.50
56016;DHT22;41894;51.016;4.672;2023-02-18T17:15:01;12.70;84.00
56016;DHT22;41894;51.016;4.672;2023-02-18T17:17:27;12.70;84.00
56016;DHT22;41894;51.016;4.672;2023-02-18T17:19:53;12.80;83.60
56016;DHT22;41894;51.016;4.672;2023-02-18T17:22:18;12.70;84.00
56016;DHT22;41894;51.016;4.672;2023-02-18T17:24:44;12.50;84.90
56016;DHT22;41894;51.016;4.672;2023-02-18T17:27:09;12.60;84.60
56016;DHT22;41894;51.016;4.672;2023-02-18T17:29:35;12.70;84.10
56016;DHT22;41894;51.016;4.672;2023-02-18T17:32:02;12.70;83.80
56016;DHT22;41894;51.016;4.672;2023-02-18T17:34:29;12.60;84.50
56016;DHT22;41894;51.016;4.672;2023-02-18T17:36:56;12.40;85.80
56016;DHT22;41894;51.016;4.672;2023-02-18T17:39:22;12.40;85.90
56016;DHT22;41894;51.016;4.672;2023-02-18T17:41:49;12.40;85.90
56016;DHT22;41894;51.016;4.672;2023-02-18T17:44:17;12.40;86.40
56016;DHT22;41894;51.016;4.672;2023-02-18T17:46:43;12.30;86.80
56016;DHT22;41894;51.016;4.672;2023-02-18T17:49:09;12.30;86.50
56016;DHT22;41894;51.016;4.672;2023-02-18T17:51:35;12.30;86.40
56016;DHT22;41894;51.016;4.672;2023-02-18T17:54:01;12.40;85.80
56016;DHT22;41894;51.016;4.672;2023-02-18T17:56:27;12.40;86.70
56016;DHT22;41894;51.016;4.672;2023-02-18T17:58:53;12.30;86.00
56016;DHT22;41894;51.016;4.672;2023-02-18T18:01:18;12.60;85.10
56016;DHT22;41894;51.016;4.672;2023-02-18T18:03:45;12.60;85.00
56016;DHT22;41894;51.016;4.672;2023-02-18T18:06:19;12.60;85.60
56016;DHT22;41894;51.016;4.672;2023-02-18T18:08:46;12.50;85.80
56016;DHT22;41894;51.016;4.672;2023-02-18T18:11:16;12.50;86.10
56016;DHT22;41894;51.016;4.672;2023-02-18T18:13:42;12.50;86.00
56016;DHT22;41894;51.016;4.672;2023-02-18T18:16:13;12.60;85.70
56016;DHT22;41894;51.016;4.672;2023-02-18T18:18:39;12.70;85.60
56016;DHT22;41894;51.016;4.672;2023-02-18T18:21:05;12.60;85.60
56016;DHT22;41894;51.016;4.672;2023-02-18T18:23:31;12.60;85.20
56016;DHT22;41894;51.016;4.672;2023-02-18T18:25:59;12.30;87.10
56016;DHT22;41894;51.016;4.672;2023-02-18T18:28:26;12.40;87.20
56016;DHT22;41894;51.016;4.672;2023-02-18T18:30:53;12.60;86.40
56016;DHT22;41894;51.016;4.672;2023-02-18T18:33:22;12.60;86.00
56016;DHT22;41894;51.016;4.672;2023-02-18T18:35:50;12.60;86.20